Ride Results

Spring Mountain Challenge (05-06-2005)
Ride distance: 81.0 km

Outcomes - Spring Mountain Challenge (05-06-2005)
Division No. of Entries Retired / DNE Completed Withdrawn Ineligible V/O Percentage Completed
HW 41 - 30 2 - 9 73.17%
MW 62 - 55 1 1 5 88.71%
LW 36 - 30 - - 6 83.33%
JN 15 - 12 - - 3 80.00%
Totals 154 - 127 3 1 23 82.47%
Results - Spring Mountain Challenge (05-06-2005)
No. Rider Horse Place Time Leg Speeds Total
Km/Hr
H/R bpm
Heavyweight
182 Elizabeth Paton Freelance Gaytu Boysey 1 4:01:00 21.3, 18.6 20.17 28, 39, 45 (Avg:42)
190 David Horton Eskdale Espirique 2 4:02:00 21.0, 18.8 20.08 33, 42, 59 (Avg:50)
177 Mark Haigh Tongarra Red Cloud 3 4:03:00 19.9, 19.9 20.00 36, 38, 42 (Avg:40)
71 Roger Warner Cassius 4 4:22:00 21.0, 15.8 18.55 36, 46, 53 (Avg:49)
139 Maurice Crombie Te Auri Zahir 5 4:23:00 19.8, 16.7 18.48 37, 43, 49 (Avg:46)
189 Maurice Gray Ashraf Ibn Amir 5 4:23:00 20.5, 16.0 18.48 38, 42, 55 (Avg:48)
185 Ken Burwell High Velosity 7 4:47:00 19.4, 14.2 16.93 28, 38, 41 (Avg:39)
166 Vance Ratapu Jessie 7 4:47:00 19.0, 14.5 16.93 31, 41, 45 (Avg:43)
82 Kacey Childs Follyfoot 9 5:12:00 18.2, 12.8 15.58 39, 46, 55 (Avg:50)
154 Peter Casey Fred 10 5:49:00 14.9, 12.6 13.93 37, 45, 43 (Avg:44)
45 Jason Tyrer Stormy 11 5:59:00 15.2, 11.6 13.54 41, 42, 47 (Avg:44)
97 Robert Fenech Tallio Muftakher 12 6:01:00 13.7, 13.1 13.46 37, 48, 49 (Avg:48)
68 Len Law Ming-Gah Teranus 13 6:08:00 13.7, 12.5 13.21 35, 46, 49 (Avg:47)
122 Craig Ellison Rowallan Dark Lad 14 6:11:00 13.7, 12.2 13.10 31, 36, 43 (Avg:39)
188 Ricky Petersen Chaswyk Kharatouche 14 6:11:00 13.3, 12.6 13.10 43, 44, 58 (Avg:51)
184 Sharon Russell Rafyke 16 6:14:00 13.7, 12.0 12.99 42, 46, 56 (Avg:51)
100 Olaf Lochtenberg Matta Mia Larry 17 6:17:00 13.7, 11.8 12.89 33, 42, 46 (Avg:44)
194 Kevin Cook Rockabilly Rebel 18 6:31:00 13.7, 10.9 12.43 42, 43, 47 (Avg:45)
106 Noel Weismann Hirstglen Conquistador 19 6:41:00 13.7, 10.3 12.12 34, 44, 49 (Avg:46)
89 Anthony Caslin Timeless 20 6:44:00 12.9, 10.8 12.03 35, 49, 51 (Avg:50)
116 Bruce Ericksen Hillbrae Kazlad 21 6:46:00 12.3, 11.5 11.97 48, 39, 43 (Avg:41)
70 Roy Barsby Dumaresq Zahir 22 6:49:00 12.3, 11.3 11.88 36, 41, 45 (Avg:43)
115 John Davidson Ennovyar Dancing Girl 23 6:55:00 11.9, 11.3 11.71 35, 38, 47 (Avg:42)
105 Joyce McGowan Tallaroon Crystal Rose 24 7:21:00 12.6, 9.2 11.02 39, 46, 57 (Avg:51)
55 Marty Branigan Kalkadoon Nijinsky 25 7:24:00 12.8, 9.0 10.95 34, 41, 44 (Avg:42)
54 David Somerville Maf-Ue Czar 25 7:24:00 12.8, 9.0 10.95 34, 39, 43 (Avg:41)
127 Adrian Hope-Hodgetts Agecroft Israel 27 7:25:00 10.8, 10.9 10.92 30, 49, 42 (Avg:45)
195 Kristan Kershaw Bullarto Casals 28 7:32:00 12.3, 9.0 10.75 40, 44, 45 (Avg:44)
173 Phillipa McConnell Rei's Jazz 28 7:32:00 12.7, 8.7 10.75 40, 51, 55 (Avg:53)
108 John Stewart Rushworth Ernie Miller 30 7:34:00 12.3, 8.9 10.70 35, 51, 46 (Avg:48)
198 Andy Hansen Bara Park Barns Lame L2 0:00:00 13.7, 36.6 - 33, 41, 41 (Avg:41)
91 Niels Lochtenberg Matta Mia Ademi Lame L2 0:00:00 13.7, 10.7 - 41, 43, 49 (Avg:46)
111 Selwyn Nix Bint Liberty Heart Rate L2 0:00:00 13.7, 11.5 - 41, 42, 70 (Avg:56)
153 Frank Scadding Windcraft Kalu Widthdrawn L2 0:00:00 - - 31, 37, 50 (Avg:43)
168 Glen Seib Our Allegiance Lame L2 0:00:00 16.6, 11.9 - 36, 45, 52 (Avg:48)
119 David Anderson (DAD) Count Lea Lame L1 0:00:00 13.4 - 36, 41 (Avg:41)
175 Hal Archer Dunwingeri Nova Lame L1 0:00:00 15.9 - 37, 40 (Avg:40)
186 Garry Fry Silver Sabesh Lame L1 0:00:00 11.5 - 34, 36 (Avg:36)
50 Ron Haigh Rustan Raahbu-Klan Widthdrawn L1 0:00:00 - - 39, 48 (Avg:48)
99 Rodney Hyland Blue Chinook Lame L1 0:00:00 10.2 - 37, 43 (Avg:43)
162 Dick Collyer Crystabarbara Metabolics P/R 0:00:00 - - 39
Middleweight
132 Judy Battams Marja Shyella Desert Dream 1 3:45:00 23.0, 19.8 21.60 33, 39, 40 (Avg:39)
125 Elsie Newsome Abrock Alto 1 3:45:00 23.0, 19.8 21.60 38, 37, 42 (Avg:39)
156 Jan Tyrrell Cameo Sleeping Beauty 1 3:45:00 23.0, 19.8 21.60 37, 40, 45 (Avg:42)
160 Sally Summers Shahtaan 4 4:00:00 21.3, 18.8 20.25 36, 40, 41 (Avg:40)
58 Paul Brown Camelot Retreat Basra 5 4:01:00 20.8, 19.2 20.17 46, 45, 49 (Avg:47)
200 Daniele O'Loughlin Pravado 5 4:01:00 21.1, 18.8 20.17 37, 42, 42 (Avg:42)
193 Jeff Trevarthen Red Zane 5 4:01:00 22.1, 17.8 20.17 32, 45, 56 (Avg:50)
109 Dean Chamberlain Silver Mistral 8 4:03:00 20.8, 18.8 20.00 50, 43, 47 (Avg:45)
149 Brook Sample Carnarvon Cavalier 8 4:03:00 19.9, 19.9 20.00 32, 37, 35 (Avg:36)
143 Cora Becker Obi Rain Dance 10 4:22:00 20.1, 16.6 18.55 28, 38, 41 (Avg:39)
178 Alicia Henry Allamir Silver Shadow 10 4:22:00 19.3, 17.5 18.55 36, 41, 42 (Avg:41)
180 Heather Roberts Bagherra Bethany 10 4:22:00 21.6, 15.3 18.55 33, 44, 43 (Avg:43)
46 Trevor Copland Rusty Libra 13 4:26:00 20.7, 15.5 18.27 42, 45, 51 (Avg:48)
81 Narelle Childs Arsley House Eryldene 14 4:27:00 19.9, 16.0 18.20 33, 42, 45 (Avg:43)
83 Joyce Corbett Reeflex 14 4:27:00 19.9, 16.0 18.20 39, 40, 44 (Avg:42)
88 Wayne McKinnon Dunbar Aramis 16 4:47:00 19.8, 13.9 16.93 33, 42, 46 (Avg:44)
77 Matthew Gadsby Dardanga Fingal 17 4:50:00 17.7, 15.4 16.76 34, 40, 46 (Avg:43)
126 Libby Nichols Meltharina Moosa 17 4:50:00 18.2, 14.9 16.76 35, 43, 53 (Avg:48)
172 Jean Taylor Nerim 19 4:54:00 18.2, 14.5 16.53 34, 41, 42 (Avg:41)
107 Donna Brooker Hirstglen Fargo 20 4:55:00 19.0, 13.7 16.47 35, 44, 52 (Avg:48)
53 Karen Johanson Kalkadoon Kynuna 20 4:55:00 18.9, 13.8 16.47 34, 39, 40 (Avg:39)
84 Tulsi Combe Zara Farm Chandalii 22 5:12:00 18.2, 12.8 15.58 34, 35, 41 (Avg:38)
62 Jacky Clarke Kalkadoon Sequin 23 5:27:00 17.3, 12.2 14.86 35, 44, 44 (Avg:44)
137 Anne Barlow Tyto Ivan 24 5:35:00 16.2, 12.5 14.51 34, 41, 45 (Avg:43)
76 Julie Kemp Al Baraq 24 5:35:00 16.8, 12.0 14.51 44, 41, 50 (Avg:45)
155 Gerry Bergmans Aratahnes Galaxy 26 5:45:00 15.6, 12.2 14.09 36, 38, 46 (Avg:42)
92 Fiona Fenech Kilkivan Msalute 27 5:48:00 13.8, 14.1 13.97 38, 45, 49 (Avg:47)
72 Ben Caslick Kadeen 28 6:00:00 13.7, 13.1 13.50 38, 48, 47 (Avg:47)
65 Debbie Forsdike Travelon 29 6:01:00 13.7, 13.1 13.46 33, 42, 47 (Avg:44)
161 Jillian Crowley Crystalara 30 6:05:00 14.9, 11.4 13.32 34, 44, 42 (Avg:43)
67 Annette Law Nikki 31 6:08:00 13.7, 12.5 13.21 35, 45, 50 (Avg:47)
133 Bob Sample Roobuk Tahlara 32 6:11:00 13.5, 12.4 13.10 33, 47, 48 (Avg:47)
179 Marlies Smith Dmar Dancing Diplomat 32 6:11:00 13.3, 12.6 13.10 36, 45, 45 (Avg:45)
169 Peter Birch Kalkadoon Kossak 34 6:14:00 13.7, 12.0 12.99 38, 44, 45 (Avg:44)
181 Robert Sutton Tottenham Park Etosha 34 6:14:00 13.7, 12.0 12.99 39, 46, 48 (Avg:47)
110 Derryn Nix Dunbar El Maestro 36 6:21:00 13.7, 11.5 12.76 46, 42, 54 (Avg:48)
199 Kerry Mckay Bellarine Jiraay 37 6:31:00 13.7, 10.9 12.43 40, 43, 41 (Avg:42)
128 Angela Georgopoulos El Rebel Stimulator 38 6:42:00 12.7, 11.2 12.09 39, 54, 53 (Avg:53)
86 James Sheahan Woodbourne Edmund 38 6:42:00 13.7, 10.3 12.09 36, 55, 60 (Avg:57)
147 Keisuke Goda Shah-Vale Shamal 40 6:43:00 12.6, 11.3 12.06 36, 43, 45 (Avg:44)
170 Graysen Clarke Latif Jemima 41 6:44:00 12.9, 10.8 12.03 38, 44, 47 (Avg:45)
61 Jacque Wright The Falconer 42 6:47:00 13.2, 10.4 11.94 35, 50, 58 (Avg:54)
114 Jane Davidson Celebration 43 6:56:00 13.0, 10.1 11.68 42, 41, 43 (Avg:42)
60 Barry Gill Aloha Silver Domino 43 6:56:00 11.9, 11.3 11.68 37, 42, 44 (Avg:43)
112 Alan Roberts Nangana Madoukhar 43 6:56:00 11.9, 11.3 11.68 34, 47, 51 (Avg:49)
164 Karen Lee Ramalea Tahini 46 7:01:00 13.2, 9.7 11.54 37, 38, 40 (Avg:39)
163 Tom Lindley Vincent 46 7:01:00 13.2, 9.7 11.54 35, 42, 46 (Avg:44)
57 Sue Daniell Gurangada Khavalier 48 7:02:00 12.5, 10.3 11.52 38, 46, 49 (Avg:47)
129 Simone Krahnen Pender Brook Kedor 49 7:21:00 12.6, 9.2 11.02 33, 50, 58 (Avg:54)
150 Ken Delzoppo Riverwood Park Star of David 50 7:22:00 12.7, 9.1 11.00 38, 41, 49 (Avg:45)
183 Karen Weeden Fazenda Shohan 51 7:23:00 12.9, 8.9 10.97 33, 33, 44 (Avg:38)
52 Scott Hill Kalkadoon Kismet 52 7:24:00 12.8, 9.0 10.95 44, 44, 38 (Avg:41)
49 Alex Batschowanow Saroco Svetlanah 53 7:32:00 12.7, 8.7 10.75 35, 44, 53 (Avg:48)
142 Sandy Jephcott Shirvoo 53 7:32:00 12.9, 8.6 10.75 49, 45, 58 (Avg:51)
152 Wendy Smith Midu Jacelle 55 7:34:00 12.3, 8.9 10.70 38, 40, 43 (Avg:41)
103 Meg Butler Desert Sand Lame L2 0:00:00 18.2, 14.5 - 30, 38, 43 (Avg:40)
47 Jill Ryan Fernside Navahoe Heart Rate L2 0:00:00 13.2, 8.4 - 42, 51, 65 (Avg:58)
118 David Urquhart Lucas Lame L2 0:00:00 13.7, 12.2 - 40, 48, 57 (Avg:52)
78 Neil Hoy Karim's Pride Disqualified L1 0:00:00 15.2 - 32, 39 (Avg:39)
138 Jaime Mansbridge Shannonwood Bree Metabolics non-invasive L1 0:00:00 16.8 - 39, 43 (Avg:43)
104 Sue Rhodes Jaytee Amana Widthdrawn L1 0:00:00 - - 33, 38 (Avg:38)
192 Tanya Zanow Rodborough Rezon Lame L1 0:00:00 22.1 - 34, 44 (Avg:44)
Lightweight
59 Jeanna Maher Red Gum Trinket 1 3:49:00 23.0, 19.0 21.22 39, 43, 49 (Avg:46)
136 Anne Criner Roxborough Pegasus 2 4:01:00 21.3, 18.6 20.17 33, 45, 51 (Avg:48)
187 Melodie Churchill Shahreena 'Al Amira 3 4:22:00 20.7, 16.0 18.55 28, 40, 43 (Avg:41)
85 Lauren Edwards Meltharina Magic 4 4:24:00 19.9, 16.4 18.41 44, 37, 47 (Avg:42)
102 Christine Christie Reg 5 4:54:00 20.5, 12.8 16.53 37, 39, 51 (Avg:45)
96 Pip Lillyman Meadowbrook Rhapsody 6 5:35:00 18.2, 11.1 14.51 28, 36, 38 (Avg:37)
140 Cathy Herve Hilbrae Maxine 7 5:37:00 16.2, 12.3 14.42 38, 40, 49 (Avg:44)
167 Margaret Harvey Banbra Shadow 8 5:39:00 15.9, 12.5 14.34 33, 40, 46 (Avg:43)
148 Kaylea Maher Shanadaar El Ahshan 8 5:39:00 16.0, 12.3 14.34 37, 53, 47 (Avg:50)
146 Ashlee Shafer Chiquita 8 5:39:00 16.0, 12.3 14.34 32, 42, 37 (Avg:39)
171 Barbara Draheim Danbar Silk N' Satinn 11 5:49:00 15.9, 11.7 13.93 34, 38, 40 (Avg:39)
176 Verona Larkin Rebroff Killara 11 5:49:00 15.8, 11.8 13.93 36, 42, 51 (Avg:46)
66 Robin Young Ilanel Shanntann 13 5:51:00 15.2, 12.2 13.85 50, 42, 52 (Avg:47)
73 Joanne Crittenden Bullio Apparition 14 6:00:00 13.7, 13.1 13.50 36, 42, 44 (Avg:43)
191 Jocelyn Barnes Sahala Afrikhaan 15 6:01:00 13.7, 13.1 13.46 43, 47, 45 (Avg:46)
94 Clare Fleming Mangueira Moksha 15 6:01:00 13.7, 13.1 13.46 30, 39, 39 (Avg:39)
157 Della Weier Kahshah 17 6:05:00 13.7, 12.7 13.32 32, 42, 44 (Avg:43)
63 Emma Kirby Bremervale Bandyt 18 6:09:00 13.7, 12.4 13.17 35, 43, 52 (Avg:47)
79 Jennifer Annetts Churinga Desire 19 6:11:00 13.7, 12.2 13.10 40, 49, 49 (Avg:49)
93 Jackie Parsons Chevalier 20 6:12:00 14.2, 11.6 13.06 32, 39, 44 (Avg:41)
90 Bobbi Lochtenberg Sooty Bye Royal 21 6:17:00 13.7, 11.8 12.89 45, 49, 56 (Avg:52)
117 Angela Hawks Dunbar Midas 22 6:20:00 12.9, 12.5 12.79 31, 42, 44 (Avg:43)
75 Cassie Saunders Baja Willben Warrior 23 6:42:00 13.7, 10.3 12.09 32, 44, 53 (Avg:48)
64 Lynn Ericksen Razar 24 6:46:00 12.3, 11.5 11.97 43, 44, 45 (Avg:44)
165 Mary Sims Lizzie 25 6:47:00 13.5, 10.1 11.94 36, 44, 46 (Avg:45)
69 Deanna Loomes Shaydeetree Ice 26 6:49:00 12.3, 11.3 11.88 39, 48, 47 (Avg:47)
135 Debbie Thompson Millers Park Absolute 27 6:51:00 12.7, 10.7 11.82 39, 41, 43 (Avg:42)
151 Jan Goodwin Lucy 28 7:22:00 12.7, 9.1 11.00 32, 39, 42 (Avg:40)
51 Pamela Dobson Asab High Voltage 29 7:24:00 12.8, 9.0 10.95 42, 54, 52 (Avg:53)
48 Joy Rose Fernside Chenoah Tatanya 30 7:32:00 13.2, 8.4 10.75 38, 44, 57 (Avg:50)
87 Katrina Draegar Maya Amika Lame L2 0:00:00 13.7, 10.7 - 33, 40, 55 (Avg:47)
174 Jessica Kirsch Zenith Park Quill Lame L2 0:00:00 20.4, 18.6 - 30, 38, 44 (Avg:41)
141 Bridgette Crombie Rombando Tendi Metabolics non-invasive L1 0:00:00 18.2 - 34, 53 (Avg:53)
74 Elise Gough Aloha Millennium Lame L1 0:00:00 13.7 - 35, 41 (Avg:41)
144 Melissa Grimes Uvinia Blue Son Heart Rate L1 0:00:00 12.6 - 38, 62 (Avg:62)
123 Bec Miller Aloha Zoom Lame L1 0:00:00 13.7 - 35, 41 (Avg:41)
Junior
158 Terrence Weier Jayhal Ghost 1 4:00:00 21.3, 18.8 20.25 35, 42, 47 (Avg:44)
159 Brianna Weier Thalara 2 5:39:00 15.9, 12.4 14.34 38, 42, 47 (Avg:44)
134 Miranda Rew-Duffy Piabun Midgum 3 6:11:00 13.5, 12.4 13.10 33, 40, 40 (Avg:40)
101 Racheal Townsend Myahna Melodoura 4 6:12:00 14.9, 10.9 13.06 30, 41, 41 (Avg:41)
145 Saasha Grogan Taljarri Moonlight Pharoah 5 6:43:00 12.6, 11.3 12.06 41, 40, 44 (Avg:42)
95 Leila Callander Leechdale Golden Nugget 6 6:56:00 13.0, 10.1 11.68 35, 41, 45 (Avg:43)
113 Ian Davidson Jaytee The Rebel 6 6:56:00 12.9, 10.2 11.68 36, 40, 40 (Avg:40)
56 Jess Daniell Royalight 8 7:02:00 12.5, 10.3 11.52 35, 45, 54 (Avg:49)
131 Colleen Krahnen Wywurri Starlight 9 7:21:00 12.6, 9.2 11.02 37, 48, 39 (Avg:43)
130 Erin Krahnen Narla 9 7:21:00 12.6, 9.2 11.02 35, 44, 46 (Avg:45)
196 Emilie Barton Heathfield Annie 11 7:32:00 12.4, 9.0 10.75 36, 43, 46 (Avg:44)
98 Lucas Hyland Shamrock Hill Shahtihr 12 8:39:00 10.2, 8.2 9.36 41, 43, 45 (Avg:44)
120 Terri Anderson Hillbrae Kaszan Lame L2 0:00:00 13.4, 13.5 - 32, 38, 39 (Avg:38)
197 Laura Finlayson Prince Kaschial Lame L2 0:00:00 12.4, 10.1 - 36, 40, 46 (Avg:43)
124 Tasha Jeremy Zambucca Lame L1 0:00:00 20.2 - 32, 38 (Avg:38)